Time;durP1;ratioP1;P1;durP2;ratioP2;P2;SDS_P1;SDS_P2;PMS_P1;PMS_P2;Temp;Humidity;BMP_temperature;BMP_pressure;BME280_temperature;BME280_humidity;BME280_pressure;Samples;Min_cycle;Max_cycle;Signal;HPM_P1;HPM_P2
2021/12/25 00:00:36;;;;;;;1.43;1.33;;;12.10;52.30;;;;;;5063269;28;20469;-81
2021/12/25 00:03:04;;;;;;;2.93;1.57;;;12.10;52.20;;;;;;5063426;28;20533;-81
2021/12/25 00:05:32;;;;;;;1.40;1.30;;;12.10;52.20;;;;;;5062997;28;20562;-81
2021/12/25 00:08:01;;;;;;;1.47;1.37;;;12.10;52.10;;;;;;5063594;28;20431;-81
2021/12/25 00:10:30;;;;;;;3.50;1.60;;;12.00;52.00;;;;;;5062660;28;20521;-82
2021/12/25 00:12:58;;;;;;;1.57;1.47;;;12.00;52.00;;;;;;5054715;28;20521;-82
2021/12/25 00:15:28;;;;;;;2.83;1.50;;;12.00;52.60;;;;;;5062896;28;20518;-82
2021/12/25 00:17:56;;;;;;;1.73;1.50;;;12.00;52.10;;;;;;5059010;28;20446;-82
2021/12/25 00:20:24;;;;;;;1.50;1.40;;;12.00;52.70;;;;;;5060681;28;20465;-82
2021/12/25 00:22:52;;;;;;;2.50;1.50;;;12.00;52.00;;;;;;5060494;28;20441;-82
2021/12/25 00:25:21;;;;;;;1.30;1.20;;;11.90;51.80;;;;;;5059658;28;20909;-82
2021/12/25 00:27:57;;;;;;;1.67;1.20;;;11.90;51.90;;;;;;5049808;28;20452;-82
2021/12/25 00:30:35;;;;;;;1.47;1.37;;;11.90;51.70;;;;;;5060754;28;20457;-82
2021/12/25 00:33:16;;;;;;;1.40;1.30;;;11.80;51.70;;;;;;5060922;28;20508;-82
2021/12/25 00:35:46;;;;;;;1.77;1.50;;;11.80;51.60;;;;;;5060155;28;20499;-82
2021/12/25 00:38:14;;;;;;;1.40;1.30;;;11.80;51.70;;;;;;5059752;28;20517;-82
2021/12/25 00:40:42;;;;;;;1.23;1.17;;;11.80;51.80;;;;;;5059668;28;20462;-82
2021/12/25 00:43:10;;;;;;;1.50;1.40;;;11.80;51.70;;;;;;5059648;28;20466;-82
2021/12/25 00:45:39;;;;;;;1.60;1.50;;;11.70;51.50;;;;;;5048048;28;20509;-82
2021/12/25 00:48:07;;;;;;;1.33;1.23;;;11.70;51.50;;;;;;5059836;28;20546;-81
2021/12/25 00:50:35;;;;;;;1.50;1.40;;;11.70;51.60;;;;;;5059752;28;20466;-81
2021/12/25 00:53:03;;;;;;;1.40;1.30;;;11.60;51.30;;;;;;5059630;28;20514;-82
2021/12/25 00:55:31;;;;;;;1.23;1.23;;;11.60;51.30;;;;;;5059399;28;20467;-82
2021/12/25 00:57:59;;;;;;;1.80;1.57;;;11.60;51.40;;;;;;5059268;28;20474;-81
2021/12/25 01:00:27;;;;;;;1.20;1.10;;;11.60;51.20;;;;;;5057795;28;20526;-81
2021/12/25 01:02:56;;;;;;;1.50;1.40;;;11.60;51.20;;;;;;5030874;28;20463;-82
2021/12/25 01:05:24;;;;;;;1.20;1.20;;;11.60;51.20;;;;;;5059394;28;20455;-81
2021/12/25 01:07:52;;;;;;;1.73;1.30;;;11.50;51.00;;;;;;5058840;28;20438;-82
2021/12/25 01:10:21;;;;;;;1.37;1.27;;;11.50;51.00;;;;;;5058611;28;20446;-82
2021/12/25 01:12:59;;;;;;;1.27;1.17;;;11.50;51.00;;;;;;5059124;28;20529;-82
2021/12/25 01:15:35;;;;;;;1.77;1.60;;;11.50;50.90;;;;;;5059316;28;20542;-81
2021/12/25 01:26:43;;;;;;;1.43;1.33;;;11.30;50.60;;;;;;5019049;28;20469;-82
2021/12/25 01:32:31;;;;;;;1.43;1.33;;;11.30;50.60;;;;;;5000375;28;20483;-82
2021/12/25 01:37:57;;;;;;;2.03;1.33;;;11.30;50.60;;;;;;5045310;28;20453;-82
2021/12/25 01:40:45;;;;;;;2.07;1.40;;;11.20;50.50;;;;;;5059278;28;20521;-82
2021/12/25 01:48:45;;;;;;;1.57;1.47;;;11.20;50.40;;;;;;5059709;28;20457;-81
2021/12/25 01:51:14;;;;;;;1.60;1.50;;;11.20;50.40;;;;;;5037230;28;20483;-81
2021/12/25 01:53:42;;;;;;;4.30;1.50;;;11.20;50.40;;;;;;5030714;28;20499;-82
2021/12/25 01:56:10;;;;;;;1.20;1.20;;;11.10;50.30;;;;;;5045528;28;20442;-82
2021/12/25 01:58:38;;;;;;;1.57;1.33;;;11.10;50.30;;;;;;5055082;28;20916;-82
2021/12/25 02:01:07;;;;;;;1.63;1.53;;;11.10;50.20;;;;;;5058913;28;20498;-81
2021/12/25 02:03:36;;;;;;;1.50;1.40;;;11.10;50.20;;;;;;5059066;28;20470;-81
2021/12/25 02:06:04;;;;;;;1.60;1.40;;;11.00;50.00;;;;;;5055226;28;20475;-81
2021/12/25 02:08:34;;;;;;;1.40;1.30;;;11.00;50.00;;;;;;5053907;28;20527;-81
2021/12/25 02:11:03;;;;;;;5.80;1.50;;;11.00;50.10;;;;;;5058740;28;20498;-82
2021/12/25 02:13:34;;;;;;;1.70;1.23;;;11.00;50.10;;;;;;5059097;28;20538;-82
2021/12/25 02:16:06;;;;;;;1.47;1.37;;;10.90;49.90;;;;;;5058587;28;20486;-82
2021/12/25 02:18:55;;;;;;;2.70;1.50;;;11.00;50.10;;;;;;5058957;28;20451;-81
2021/12/25 02:21:30;;;;;;;1.57;1.47;;;10.90;50.00;;;;;;5058831;28;20495;-82
2021/12/25 02:23:58;;;;;;;1.50;1.40;;;10.90;49.90;;;;;;5039410;28;20463;-81
2021/12/25 02:26:26;;;;;;;2.77;1.40;;;10.90;49.90;;;;;;5057876;28;20498;-82
2021/12/25 02:28:54;;;;;;;2.10;1.80;;;10.90;50.00;;;;;;5058515;28;20884;-81
2021/12/25 02:31:22;;;;;;;1.53;1.43;;;10.80;49.80;;;;;;5045716;28;20485;-81
2021/12/25 02:33:50;;;;;;;1.23;0.97;;;10.90;49.90;;;;;;5059092;28;20558;-81
2021/12/25 02:36:19;;;;;;;1.37;1.27;;;10.80;49.60;;;;;;5059009;28;20437;-81
2021/12/25 02:38:48;;;;;;;1.37;1.23;;;10.80;49.70;;;;;;5058182;28;20534;-81
2021/12/25 02:41:16;;;;;;;1.60;1.47;;;10.80;49.60;;;;;;5057688;28;20469;-81
2021/12/25 02:43:45;;;;;;;2.40;1.30;;;10.80;50.20;;;;;;5057988;28;20463;-81
2021/12/25 02:46:14;;;;;;;1.50;1.10;;;10.70;49.40;;;;;;5052728;28;20525;-81
2021/12/25 02:48:42;;;;;;;1.40;1.30;;;10.70;49.50;;;;;;5044099;28;20450;-81
2021/12/25 02:51:12;;;;;;;1.40;1.30;;;10.70;49.50;;;;;;5037825;28;20450;-82
2021/12/25 02:53:40;;;;;;;1.50;1.40;;;10.70;49.50;;;;;;5048790;28;20542;-81
2021/12/25 02:56:09;;;;;;;1.77;1.23;;;10.60;49.40;;;;;;5034969;28;20521;-81
2021/12/25 02:58:37;;;;;;;5.67;1.50;;;10.60;49.50;;;;;;5045992;28;20522;-81
2021/12/25 03:01:07;;;;;;;1.50;1.40;;;10.60;49.40;;;;;;5028560;28;20490;-81
2021/12/25 03:03:36;;;;;;;1.70;1.40;;;10.60;49.40;;;;;;5049051;28;20449;-81
2021/12/25 03:06:04;;;;;;;1.30;1.20;;;10.60;49.50;;;;;;5031572;28;20992;-81
2021/12/25 03:08:32;;;;;;;1.60;1.27;;;10.60;49.40;;;;;;5042075;28;20562;-81
2021/12/25 03:11:00;;;;;;;1.30;1.30;;;10.60;49.40;;;;;;5038242;28;20459;-81
2021/12/25 03:13:36;;;;;;;6.00;1.50;;;10.60;49.40;;;;;;5038922;28;20569;-81
2021/12/25 03:16:07;;;;;;;1.33;1.07;;;10.60;49.40;;;;;;5035074;28;20563;-81
2021/12/25 03:18:40;;;;;;;1.87;1.60;;;10.50;49.20;;;;;;5036140;28;20415;-81
2021/12/25 03:21:08;;;;;;;1.27;1.20;;;10.50;49.20;;;;;;5036911;28;20520;-81
2021/12/25 03:23:36;;;;;;;1.60;1.50;;;10.50;49.30;;;;;;5033430;28;20507;-81
2021/12/25 03:26:05;;;;;;;2.10;1.33;;;10.50;49.40;;;;;;5039347;28;20935;-81
2021/12/25 03:28:38;;;;;;;1.43;1.27;;;10.50;49.30;;;;;;5056020;28;20474;-81
2021/12/25 03:31:13;;;;;;;1.20;1.10;;;10.40;49.10;;;;;;5055758;28;20918;-81
2021/12/25 03:33:42;;;;;;;1.63;1.27;;;10.40;49.10;;;;;;5056948;28;20450;-80
2021/12/25 03:36:10;;;;;;;3.87;1.63;;;10.40;49.10;;;;;;5057269;28;20458;-81
2021/12/25 03:38:38;;;;;;;1.60;1.50;;;10.40;49.10;;;;;;5052601;28;20414;-81
2021/12/25 03:41:06;;;;;;;1.53;1.27;;;10.40;49.20;;;;;;5040122;28;20546;-80
2021/12/25 03:43:38;;;;;;;1.50;1.40;;;10.30;49.10;;;;;;5056725;28;20537;-81
2021/12/25 03:46:06;;;;;;;1.27;1.13;;;10.40;49.20;;;;;;5056998;28;20450;-81
2021/12/25 03:49:00;;;;;;;2.30;1.23;;;10.40;49.20;;;;;;5057425;28;20524;-81
2021/12/25 03:59:46;;;;;;;1.77;1.40;;;10.30;48.90;;;;;;5060555;28;20465;-81
2021/12/25 04:02:19;;;;;;;1.40;1.30;;;10.30;48.80;;;;;;5061436;28;20430;-81
2021/12/25 04:04:49;;;;;;;1.23;1.10;;;10.30;48.90;;;;;;5061245;28;20504;-81
2021/12/25 04:07:40;;;;;;;1.43;1.30;;;10.20;48.70;;;;;;5061072;28;20557;-82
2021/12/25 04:10:09;;;;;;;1.60;1.50;;;10.20;48.70;;;;;;5061379;28;20545;-82
2021/12/25 04:12:36;;;;;;;1.23;1.13;;;10.20;48.90;;;;;;5053717;28;20479;-81
2021/12/25 04:15:06;;;;;;;1.20;1.20;;;10.20;48.70;;;;;;5044665;28;20530;-80
2021/12/25 04:17:34;;;;;;;1.97;1.43;;;10.20;48.70;;;;;;5061107;28;20922;-81
2021/12/25 04:20:03;;;;;;;1.33;1.23;;;10.20;48.70;;;;;;5060692;28;20820;-81
2021/12/25 04:22:39;;;;;;;1.33;1.17;;;10.10;48.60;;;;;;5061284;28;20504;-80
2021/12/25 04:25:08;;;;;;;1.40;1.30;;;10.10;48.70;;;;;;5060642;28;20492;-81
2021/12/25 04:27:37;;;;;;;1.53;1.27;;;10.10;48.60;;;;;;5060800;28;20504;-81
2021/12/25 04:30:19;;;;;;;2.30;1.37;;;10.10;48.80;;;;;;5056786;28;20465;-81
2021/12/25 05:03:38;;;;;;;1.30;1.20;;;9.90;49.60;;;;;;5044489;28;20432;-81
2021/12/25 05:06:06;;;;;;;1.17;1.07;;;9.90;49.30;;;;;;5043564;28;20883;-81
2021/12/25 05:08:35;;;;;;;1.27;1.17;;;9.90;49.30;;;;;;5049903;28;20462;-81
2021/12/25 05:11:03;;;;;;;1.30;1.20;;;9.90;49.30;;;;;;5059479;28;20440;-81
2021/12/25 05:13:32;;;;;;;1.40;1.30;;;9.80;49.20;;;;;;5060360;28;20450;-81
2021/12/25 05:16:02;;;;;;;2.63;1.23;;;9.80;49.20;;;;;;5059079;28;20480;-80
2021/12/25 05:18:31;;;;;;;1.60;1.50;;;9.80;49.30;;;;;;5059171;28;20437;-79
2021/12/25 05:21:00;;;;;;;1.20;1.10;;;9.90;49.20;;;;;;5041951;28;20529;-80
2021/12/25 05:23:28;;;;;;;1.10;1.10;;;9.80;49.00;;;;;;5059081;28;20469;-80
2021/12/25 05:25:56;;;;;;;1.60;1.10;;;9.80;49.10;;;;;;5058862;28;20453;-81
2021/12/25 05:28:26;;;;;;;1.53;1.43;;;9.80;48.90;;;;;;5058557;28;20459;-80
2021/12/25 05:30:55;;;;;;;1.40;1.30;;;9.80;49.00;;;;;;5058275;28;20450;-80
2021/12/25 05:33:23;;;;;;;1.30;1.20;;;9.80;48.90;;;;;;5058549;28;20446;-80
2021/12/25 05:35:52;;;;;;;1.20;1.10;;;9.80;49.50;;;;;;5059396;28;20537;-80
2021/12/25 05:38:22;;;;;;;1.30;1.20;;;9.80;48.80;;;;;;5054327;28;20471;-80
2021/12/25 05:40:49;;;;;;;1.70;1.30;;;9.80;48.90;;;;;;5043839;28;20468;-81
2021/12/25 05:43:18;;;;;;;1.50;1.20;;;9.80;49.00;;;;;;5060060;28;20477;-81
2021/12/25 05:45:46;;;;;;;2.20;1.73;;;9.80;49.00;;;;;;5058840;28;20442;-81
2021/12/25 05:48:14;;;;;;;1.30;1.20;;;9.80;49.00;;;;;;5058776;28;20501;-81
2021/12/25 05:50:42;;;;;;;1.50;1.40;;;9.70;48.70;;;;;;5058685;28;20470;-81
2021/12/25 05:53:11;;;;;;;1.47;1.37;;;9.80;49.10;;;;;;5058102;28;20521;-81
2021/12/25 05:55:39;;;;;;;1.77;1.20;;;9.70;48.80;;;;;;5058192;28;20457;-80
2021/12/25 05:58:07;;;;;;;1.40;1.30;;;9.70;48.90;;;;;;5043611;28;20496;-81
2021/12/25 06:00:35;;;;;;;1.70;1.23;;;9.70;48.80;;;;;;5058006;28;20450;-80
2021/12/25 06:03:04;;;;;;;2.53;1.40;;;9.70;48.80;;;;;;5057859;28;20434;-81
2021/12/25 06:05:31;;;;;;;1.20;1.10;;;9.70;49.00;;;;;;5057877;28;20490;-81
2021/12/25 06:08:00;;;;;;;1.47;1.30;;;9.60;48.80;;;;;;5057446;28;20466;-80
2021/12/25 06:10:29;;;;;;;1.10;1.00;;;9.70;48.70;;;;;;5057766;28;20470;-81
2021/12/25 06:12:59;;;;;;;1.17;1.17;;;9.70;48.80;;;;;;5057258;28;20533;-81
2021/12/25 06:15:28;;;;;;;1.30;1.20;;;9.60;48.70;;;;;;5037917;28;20525;-81
2021/12/25 06:17:56;;;;;;;1.30;1.20;;;9.60;48.60;;;;;;5056231;28;20462;-81
2021/12/25 06:20:24;;;;;;;1.67;0.90;;;9.60;48.60;;;;;;5057669;28;20439;-81
2021/12/25 06:22:52;;;;;;;1.43;1.33;;;9.60;48.70;;;;;;5057262;28;20473;-81
2021/12/25 06:25:22;;;;;;;1.07;1.07;;;9.60;48.70;;;;;;5056534;28;20481;-81
2021/12/25 06:27:52;;;;;;;1.37;1.27;;;9.60;48.60;;;;;;5057151;28;20527;-81
2021/12/25 06:30:20;;;;;;;1.93;1.40;;;9.60;48.70;;;;;;5057903;28;20498;-81
2021/12/25 06:32:48;;;;;;;1.20;1.10;;;9.60;48.80;;;;;;5041458;28;20494;-81
2021/12/25 06:35:16;;;;;;;1.50;1.40;;;9.50;48.60;;;;;;5057429;28;20467;-81
2021/12/25 06:37:46;;;;;;;1.20;1.10;;;9.60;48.70;;;;;;5057037;28;20805;-81
2021/12/25 06:40:17;;;;;;;1.37;1.27;;;9.60;48.40;;;;;;5057758;28;20521;-82
2021/12/25 06:42:45;;;;;;;2.23;1.50;;;9.60;48.40;;;;;;5057403;28;20463;-81
2021/12/25 06:45:15;;;;;;;1.53;1.43;;;9.50;48.40;;;;;;5057382;28;20470;-81
2021/12/25 06:47:42;;;;;;;1.20;1.10;;;9.50;48.50;;;;;;5057136;28;20435;-81
2021/12/25 06:50:11;;;;;;;0.90;0.90;;;9.50;48.40;;;;;;5033949;28;20506;-81
2021/12/25 06:52:41;;;;;;;1.30;1.20;;;9.50;48.40;;;;;;5057837;28;20462;-81
2021/12/25 06:55:10;;;;;;;1.33;1.23;;;9.50;48.60;;;;;;5057437;28;20545;-81
2021/12/25 06:57:45;;;;;;;3.93;1.10;;;9.40;48.40;;;;;;5057496;28;20439;-81
2021/12/25 07:00:16;;;;;;;1.67;1.00;;;9.40;48.40;;;;;;5057865;28;20473;-81
2021/12/25 07:02:44;;;;;;;1.30;1.20;;;9.40;48.60;;;;;;5057347;28;20465;-81
2021/12/25 07:05:12;;;;;;;1.60;1.10;;;9.40;48.40;;;;;;5051096;28;20503;-81
2021/12/25 07:07:40;;;;;;;1.20;1.10;;;9.40;48.60;;;;;;5053190;28;20489;-82
2021/12/25 07:10:08;;;;;;;1.20;1.13;;;9.40;48.30;;;;;;5057338;28;20509;-81
2021/12/25 07:12:37;;;;;;;1.27;1.17;;;9.40;48.20;;;;;;5057885;28;20462;-81
2021/12/25 07:15:06;;;;;;;2.47;1.47;;;9.40;49.00;;;;;;5056975;28;21044;-81
2021/12/25 07:17:35;;;;;;;1.37;1.27;;;9.40;48.40;;;;;;5057686;28;20435;-81
2021/12/25 07:20:04;;;;;;;1.13;1.10;;;9.40;48.40;;;;;;5057212;28;20443;-81
2021/12/25 07:22:32;;;;;;;1.40;1.30;;;9.40;48.40;;;;;;5052131;28;20484;-81
2021/12/25 07:25:00;;;;;;;1.40;1.30;;;9.40;48.40;;;;;;5043550;28;20486;-81
2021/12/25 07:27:28;;;;;;;1.20;1.17;;;9.40;48.20;;;;;;5061527;28;20997;-82
2021/12/25 07:29:56;;;;;;;1.60;1.30;;;9.40;48.40;;;;;;5060708;28;20569;-82
2021/12/25 07:32:24;;;;;;;1.40;1.30;;;9.40;48.30;;;;;;5061637;28;20533;-82
2021/12/25 07:34:53;;;;;;;1.23;1.13;;;9.30;48.20;;;;;;5061683;28;20466;-82
2021/12/25 07:37:22;;;;;;;1.50;1.30;;;9.30;48.30;;;;;;5061106;28;20472;-81
2021/12/25 07:39:50;;;;;;;1.60;1.20;;;9.30;48.20;;;;;;5044431;28;20453;-82
2021/12/25 07:42:18;;;;;;;1.30;1.20;;;9.30;48.30;;;;;;5061335;28;20506;-82
2021/12/25 07:44:53;;;;;;;2.10;1.57;;;9.30;48.10;;;;;;5061615;28;20529;-81
2021/12/25 07:47:22;;;;;;;1.80;1.70;;;9.40;48.40;;;;;;5061376;28;20536;-82
2021/12/25 07:49:51;;;;;;;1.30;1.20;;;9.40;48.30;;;;;;5061414;28;20541;-81
2021/12/25 07:52:20;;;;;;;4.87;1.20;;;9.40;48.00;;;;;;5061183;28;20450;-81
2021/12/25 07:54:49;;;;;;;2.40;1.13;;;9.30;48.10;;;;;;5056025;28;20476;-82
2021/12/25 07:57:16;;;;;;;1.30;1.20;;;9.30;48.10;;;;;;5049629;28;20446;-82
2021/12/25 07:59:45;;;;;;;1.47;1.37;;;9.30;48.00;;;;;;5062285;28;20518;-81
2021/12/25 08:02:12;;;;;;;1.17;1.00;;;9.30;48.20;;;;;;5060939;28;20465;-81
2021/12/25 08:04:41;;;;;;;2.40;1.37;;;9.30;48.20;;;;;;5061177;28;20470;-81
2021/12/25 08:07:08;;;;;;;1.30;1.20;;;9.30;47.90;;;;;;5060541;28;20455;-81
2021/12/25 08:09:38;;;;;;;1.50;1.40;;;9.30;48.00;;;;;;5060107;28;20506;-81
2021/12/25 08:12:20;;;;;;;1.90;1.57;;;9.30;48.10;;;;;;5051102;28;20546;-81
2021/12/25 08:14:48;;;;;;;1.10;1.00;;;9.40;48.10;;;;;;5057206;28;20465;-81
2021/12/25 08:17:15;;;;;;;1.37;1.27;;;9.30;48.60;;;;;;5060561;28;20446;-81
2021/12/25 08:19:44;;;;;;;1.90;1.60;;;9.40;48.10;;;;;;5060268;28;20462;-82
2021/12/25 08:22:11;;;;;;;1.77;1.23;;;9.40;48.10;;;;;;5060830;28;20430;-82
2021/12/25 08:24:41;;;;;;;2.27;1.33;;;9.40;48.00;;;;;;5060611;28;20485;-81
2021/12/25 08:27:09;;;;;;;1.27;1.27;;;9.40;48.10;;;;;;5060731;28;20446;-82
2021/12/25 08:29:37;;;;;;;1.73;1.63;;;9.40;48.10;;;;;;5040336;28;20495;-81
2021/12/25 08:32:08;;;;;;;1.57;1.47;;;9.40;48.10;;;;;;5044398;28;20461;-82
2021/12/25 08:34:37;;;;;;;1.30;1.20;;;9.40;48.20;;;;;;5059286;28;20505;-81
2021/12/25 08:37:05;;;;;;;1.53;1.43;;;9.50;48.10;;;;;;5059842;28;20439;-81
2021/12/25 08:39:33;;;;;;;1.40;1.33;;;9.60;48.20;;;;;;5059550;28;20459;-81
2021/12/25 08:42:04;;;;;;;1.43;1.20;;;9.60;48.10;;;;;;5059647;28;20434;-81
2021/12/25 08:44:36;;;;;;;1.63;1.50;;;9.70;48.40;;;;;;5059966;28;20522;-82
2021/12/25 08:47:05;;;;;;;1.77;1.60;;;9.80;48.70;;;;;;5049440;28;20484;-82
2021/12/25 08:49:34;;;;;;;1.80;1.67;;;9.90;48.40;;;;;;5050884;28;20462;-81
2021/12/25 08:52:06;;;;;;;1.60;1.50;;;10.10;47.80;;;;;;5059425;28;20447;-82
2021/12/25 08:54:34;;;;;;;1.53;1.43;;;10.20;47.80;;;;;;5058863;28;20524;-82
2021/12/25 08:57:04;;;;;;;1.53;1.43;;;10.30;47.90;;;;;;5059339;28;20445;-82
2021/12/25 08:59:33;;;;;;;1.63;1.23;;;10.50;48.20;;;;;;5059556;28;20467;-81
2021/12/25 09:02:02;;;;;;;1.90;1.80;;;10.60;48.20;;;;;;5039688;28;20468;-82
2021/12/25 09:04:30;;;;;;;1.60;1.50;;;10.80;48.40;;;;;;5032017;28;20558;-82
2021/12/25 09:06:59;;;;;;;2.00;1.90;;;10.90;48.40;;;;;;5036212;28;20432;-82
2021/12/25 09:09:27;;;;;;;1.83;1.67;;;11.10;48.40;;;;;;5028682;28;20464;-82
2021/12/25 09:11:55;;;;;;;1.60;1.50;;;11.20;48.60;;;;;;5027467;28;20846;-82
2021/12/25 09:14:24;;;;;;;1.80;1.70;;;11.30;48.70;;;;;;5029285;28;20986;-82
2021/12/25 09:16:53;;;;;;;1.53;1.40;;;11.30;48.70;;;;;;5034676;28;20486;-82
2021/12/25 09:19:21;;;;;;;1.90;1.80;;;11.40;49.00;;;;;;5039053;28;20530;-82
2021/12/25 09:21:49;;;;;;;1.70;1.60;;;11.40;49.00;;;;;;5032041;28;20491;-82
2021/12/25 09:24:17;;;;;;;1.93;1.83;;;11.50;49.10;;;;;;5035073;28;20450;-82
2021/12/25 09:26:45;;;;;;;1.80;1.70;;;11.50;49.20;;;;;;5027001;28;20423;-82
2021/12/25 09:29:13;;;;;;;1.63;1.53;;;11.60;49.30;;;;;;5034270;28;20524;-82
2021/12/25 09:31:42;;;;;;;1.80;1.70;;;11.70;49.40;;;;;;5025992;28;20499;-82
2021/12/25 09:34:11;;;;;;;1.60;1.50;;;11.70;49.50;;;;;;5028894;28;20451;-82
2021/12/25 09:36:40;;;;;;;1.77;1.67;;;11.70;49.50;;;;;;5027571;28;20446;-82
2021/12/25 09:39:07;;;;;;;1.80;1.70;;;11.70;49.60;;;;;;5029302;28;20539;-82
2021/12/25 09:41:36;;;;;;;1.73;1.63;;;11.80;49.70;;;;;;5029988;28;20451;-82
2021/12/25 09:44:04;;;;;;;2.00;1.90;;;11.80;49.80;;;;;;5028079;28;20488;-81
2021/12/25 09:46:32;;;;;;;2.40;2.20;;;11.80;49.70;;;;;;5032207;28;20444;-82
2021/12/25 09:49:02;;;;;;;1.67;1.57;;;11.80;49.80;;;;;;5038652;28;20450;-80
2021/12/25 09:51:30;;;;;;;2.70;2.10;;;11.80;49.80;;;;;;5037475;28;20467;-82
2021/12/25 09:53:59;;;;;;;1.70;1.60;;;11.90;50.00;;;;;;5038007;28;20463;-82
2021/12/25 09:56:27;;;;;;;1.90;1.80;;;11.90;50.10;;;;;;5043957;28;20532;-82
2021/12/25 09:58:55;;;;;;;2.00;1.90;;;12.00;50.20;;;;;;5058087;28;20474;-81
2021/12/25 10:01:33;;;;;;;1.90;1.80;;;12.20;50.30;;;;;;5041723;28;20854;-82
2021/12/25 10:04:03;;;;;;;1.73;1.63;;;12.30;50.40;;;;;;5023565;28;20491;-82
2021/12/25 10:06:32;;;;;;;2.83;1.50;;;12.50;50.60;;;;;;5020445;28;20431;-82
2021/12/25 10:09:11;;;;;;;3.20;2.30;;;12.60;50.60;;;;;;5027395;28;20511;-82
2021/12/25 10:11:39;;;;;;;1.90;1.80;;;12.90;50.90;;;;;;5019924;28;20501;-82
2021/12/25 10:14:07;;;;;;;2.00;1.90;;;13.10;51.00;;;;;;5032799;28;20483;-82
2021/12/25 10:16:35;;;;;;;2.20;1.87;;;13.30;51.10;;;;;;5026132;28;20451;-82
2021/12/25 10:19:15;;;;;;;2.23;2.13;;;13.40;51.10;;;;;;5025634;28;20494;-81
2021/12/25 10:21:43;;;;;;;2.53;2.30;;;13.60;51.30;;;;;;5022958;28;20514;-82
2021/12/25 10:24:16;;;;;;;1.80;1.70;;;13.80;51.60;;;;;;5027709;28;20491;-82
2021/12/25 10:26:45;;;;;;;2.07;1.63;;;14.00;51.80;;;;;;5027310;28;20809;-82
2021/12/25 10:29:18;;;;;;;2.17;1.97;;;14.10;51.90;;;;;;5025490;28;20498;-82
2021/12/25 10:31:45;;;;;;;1.97;1.87;;;14.30;52.10;;;;;;5029793;28;20572;-82
2021/12/25 10:34:15;;;;;;;2.33;2.20;;;14.40;52.20;;;;;;5029549;28;20538;-82
2021/12/25 10:36:43;;;;;;;2.10;2.00;;;14.60;52.40;;;;;;5030131;28;20471;-82
2021/12/25 10:39:12;;;;;;;2.10;2.00;;;14.70;52.50;;;;;;5019265;28;20435;-83
2021/12/25 10:41:42;;;;;;;2.90;2.60;;;14.90;52.70;;;;;;5023837;28;21008;-83
2021/12/25 10:44:12;;;;;;;2.10;2.00;;;15.10;52.90;;;;;;5019217;28;20477;-83
2021/12/25 10:46:51;;;;;;;2.40;2.10;;;15.30;53.20;;;;;;5029298;28;20493;-80
2021/12/25 10:49:21;;;;;;;3.20;2.30;;;15.50;53.20;;;;;;5038394;28;20454;-83
2021/12/25 10:51:49;;;;;;;2.10;2.00;;;15.60;53.50;;;;;;5038891;28;20523;-83
2021/12/25 10:54:18;;;;;;;3.20;1.93;;;15.80;53.50;;;;;;5039276;28;20494;-81
2021/12/25 10:56:47;;;;;;;2.30;2.20;;;16.00;53.70;;;;;;5038154;28;20534;-80
2021/12/25 10:59:17;;;;;;;3.70;2.20;;;16.20;54.00;;;;;;5037869;28;20526;-81
2021/12/25 11:01:47;;;;;;;2.57;2.10;;;16.40;54.10;;;;;;5037464;28;20455;-82
2021/12/25 11:04:31;;;;;;;2.23;2.13;;;16.60;54.20;;;;;;5046541;28;20454;-80
2021/12/25 11:06:59;;;;;;;1.93;1.83;;;16.80;54.40;;;;;;5058206;28;20514;-81
2021/12/25 11:09:27;;;;;;;2.07;1.87;;;16.90;54.50;;;;;;5057740;28;20509;-80
2021/12/25 11:12:15;;;;;;;2.40;2.20;;;17.10;54.70;;;;;;5039516;28;20557;-79
2021/12/25 11:14:43;;;;;;;2.30;2.20;;;17.30;54.80;;;;;;5037938;28;20550;-81
2021/12/25 11:17:24;;;;;;;2.57;1.80;;;17.40;55.00;;;;;;5029361;28;20468;-81
2021/12/25 11:19:59;;;;;;;3.57;2.00;;;17.60;55.00;;;;;;5026540;28;20518;-81
2021/12/25 11:22:28;;;;;;;2.23;2.03;;;17.80;55.20;;;;;;5057448;28;20426;-78
2021/12/25 11:24:58;;;;;;;2.00;1.90;;;17.90;55.10;;;;;;5058290;28;20534;-81
2021/12/25 11:27:26;;;;;;;2.40;2.20;;;18.10;55.00;;;;;;5058977;28;20474;-81
2021/12/25 11:29:54;;;;;;;1.83;1.73;;;18.20;55.10;;;;;;5058781;28;20534;-81
2021/12/25 11:32:22;;;;;;;4.07;2.07;;;18.40;55.10;;;;;;5058107;28;20505;-81
2021/12/25 11:34:52;;;;;;;3.17;1.80;;;18.50;55.00;;;;;;5057935;28;20461;-81
2021/12/25 11:37:20;;;;;;;3.63;2.13;;;18.60;55.20;;;;;;5044823;28;20505;-81
2021/12/25 11:39:51;;;;;;;4.00;2.30;;;18.70;55.20;;;;;;5048052;28;20433;-81
2021/12/25 11:42:20;;;;;;;3.13;2.03;;;18.80;55.10;;;;;;5058335;28;20459;-80
2021/12/25 11:44:52;;;;;;;2.83;2.07;;;19.00;55.20;;;;;;5058070;28;20489;-81
2021/12/25 11:47:31;;;;;;;2.70;2.10;;;19.10;55.10;;;;;;5057632;28;20447;-81
2021/12/25 11:50:02;;;;;;;2.27;2.07;;;19.30;55.00;;;;;;5058571;28;20466;-81
2021/12/25 11:52:35;;;;;;;2.50;1.90;;;19.40;55.00;;;;;;5058205;28;20530;-81
2021/12/25 11:55:51;;;;;;;2.53;2.07;;;19.50;55.00;;;;;;5051924;28;20512;-81
2021/12/25 11:58:39;;;;;;;2.63;2.33;;;19.70;54.90;;;;;;4970927;28;20447;-81
2021/12/25 12:01:28;;;;;;;2.10;1.93;;;19.80;55.00;;;;;;5058118;28;20469;-81
2021/12/25 12:03:57;;;;;;;2.30;2.10;;;19.90;54.90;;;;;;5057883;28;20503;-81
2021/12/25 12:06:58;;;;;;;4.90;2.13;;;20.00;54.80;;;;;;5057592;28;20506;-81
2021/12/25 12:09:27;;;;;;;2.60;1.90;;;20.20;55.00;;;;;;5057915;28;20453;-81
2021/12/25 12:12:14;;;;;;;2.30;1.73;;;20.30;55.00;;;;;;5057869;28;20481;-81
2021/12/25 12:14:41;;;;;;;3.10;1.97;;;20.40;54.80;;;;;;5044703;28;20510;-82
2021/12/25 12:17:25;;;;;;;3.83;2.10;;;20.50;54.80;;;;;;5062652;28;20474;-81
2021/12/25 12:19:55;;;;;;;5.27;1.80;;;20.60;54.70;;;;;;5062313;28;20525;-82
2021/12/25 12:22:57;;;;;;;2.77;2.17;;;20.80;54.70;;;;;;5061793;28;20462;-81
2021/12/25 12:25:41;;;;;;;2.33;2.07;;;20.80;54.50;;;;;;5061765;28;20485;-80
2021/12/25 12:28:09;;;;;;;2.87;2.13;;;20.90;54.30;;;;;;5061916;28;20470;-81
2021/12/25 12:30:43;;;;;;;2.10;1.83;;;21.10;54.30;;;;;;5061522;28;20520;-80
2021/12/25 12:33:38;;;;;;;5.67;2.23;;;21.20;54.10;;;;;;5042156;28;20512;-80
2021/12/25 12:36:21;;;;;;;1.90;1.80;;;21.30;54.00;;;;;;5022004;28;20511;-80
2021/12/25 12:38:55;;;;;;;2.60;1.80;;;21.40;53.80;;;;;;5022224;28;20456;-81
2021/12/25 12:41:27;;;;;;;3.50;1.90;;;21.40;53.40;;;;;;5021900;28;20503;-81
2021/12/25 12:44:06;;;;;;;3.37;2.10;;;21.50;53.10;;;;;;5022154;28;20441;-81
2021/12/25 12:46:58;;;;;;;3.50;2.10;;;21.60;53.20;;;;;;5021784;28;20939;-81
2021/12/25 12:49:28;;;;;;;2.30;2.10;;;21.70;52.90;;;;;;5043041;28;20443;-81
2021/12/25 12:52:23;;;;;;;2.80;2.17;;;21.70;52.50;;;;;;5061071;28;20469;-80
2021/12/25 12:54:53;;;;;;;3.73;2.20;;;21.80;52.50;;;;;;5061761;28;20510;-81
2021/12/25 12:57:25;;;;;;;2.37;2.13;;;21.80;52.30;;;;;;5061900;28;20521;-80
2021/12/25 12:59:55;;;;;;;2.40;2.20;;;21.90;52.30;;;;;;5061886;28;20461;-81
2021/12/25 13:02:24;;;;;;;6.57;2.33;;;22.00;52.10;;;;;;5062279;28;20480;-80
2021/12/25 13:04:55;;;;;;;2.57;2.37;;;22.00;51.90;;;;;;5061288;28;20451;-81
2021/12/25 13:07:23;;;;;;;3.50;2.70;;;22.00;52.00;;;;;;5040509;28;20427;-81
2021/12/25 13:10:06;;;;;;;2.53;2.37;;;22.10;52.10;;;;;;5057885;28;20438;-81
2021/12/25 13:12:41;;;;;;;2.83;2.10;;;22.10;51.80;;;;;;5061237;28;20470;-81
2021/12/25 13:15:13;;;;;;;2.47;2.10;;;22.20;51.80;;;;;;5061128;28;20449;-83
2021/12/25 13:17:46;;;;;;;3.17;2.30;;;22.20;51.60;;;;;;5061575;28;20445;-82
2021/12/25 13:20:15;;;;;;;5.30;2.00;;;22.20;51.60;;;;;;5061939;28;20462;-82
2021/12/25 13:22:43;;;;;;;2.00;1.90;;;22.20;51.20;;;;;;5056226;28;20538;-82
2021/12/25 13:25:13;;;;;;;4.60;2.30;;;22.20;51.10;;;;;;5049554;28;20485;-82
2021/12/25 13:27:44;;;;;;;2.50;2.00;;;22.10;50.70;;;;;;5060634;28;20460;-82
2021/12/25 13:30:16;;;;;;;2.23;2.03;;;22.10;50.70;;;;;;5061704;28;20427;-82
2021/12/25 13:32:44;;;;;;;2.07;1.97;;;21.90;50.40;;;;;;5060273;28;20474;-82
2021/12/25 13:35:15;;;;;;;3.00;2.70;;;21.70;50.30;;;;;;5060890;28;20433;-81
2021/12/25 13:37:43;;;;;;;2.87;2.23;;;21.50;50.30;;;;;;5060121;28;20442;-82
2021/12/25 13:40:15;;;;;;;2.07;1.97;;;21.20;50.40;;;;;;5040401;28;20459;-82
2021/12/25 13:42:43;;;;;;;5.13;2.33;;;20.90;50.60;;;;;;5060956;28;20462;-82
2021/12/25 13:45:11;;;;;;;2.60;2.10;;;20.70;50.80;;;;;;5060994;28;20466;-81
2021/12/25 13:47:39;;;;;;;2.83;2.47;;;20.50;51.00;;;;;;5061151;28;20450;-81
2021/12/25 13:50:09;;;;;;;1.93;1.83;;;20.30;51.10;;;;;;5060441;28;20453;-82
2021/12/25 13:52:37;;;;;;;5.63;2.27;;;20.10;51.20;;;;;;5060930;28;20516;-82
2021/12/25 13:55:11;;;;;;;2.70;2.13;;;19.80;51.20;;;;;;5060836;28;20433;-81
2021/12/25 13:57:42;;;;;;;2.43;2.23;;;19.70;51.20;;;;;;5040294;28;20450;-81
2021/12/25 14:00:13;;;;;;;2.57;1.77;;;19.40;51.10;;;;;;5021323;28;20512;-81
2021/12/25 14:02:42;;;;;;;2.97;2.10;;;19.30;51.10;;;;;;5021393;28;20468;-81
2021/12/25 14:05:10;;;;;;;2.50;2.17;;;19.10;51.10;;;;;;5021192;28;20456;-82
2021/12/25 14:07:39;;;;;;;2.23;1.70;;;19.00;51.10;;;;;;5020758;28;20460;-82